createdAt,value
2019-02-23T00:00:55.117Z,71.70
2019-02-23T00:03:23.890Z,71.70
2019-02-23T00:05:52.911Z,71.70
2019-02-23T00:08:21.723Z,71.70
2019-02-23T00:10:51.168Z,71.60
2019-02-23T00:13:20.262Z,71.50
2019-02-23T00:15:49.177Z,71.60
2019-02-23T00:18:17.986Z,71.50
2019-02-23T00:20:46.757Z,71.50
2019-02-23T00:23:16.187Z,71.50
2019-02-23T00:25:45.623Z,71.70
2019-02-23T00:28:14.982Z,71.60
2019-02-23T00:30:44.026Z,71.70
2019-02-23T00:33:13.364Z,71.70
2019-02-23T00:35:42.399Z,71.80
2019-02-23T00:38:11.468Z,71.80
2019-02-23T00:40:41.108Z,71.80
2019-02-23T00:43:10.167Z,71.80
2019-02-23T00:45:39.192Z,71.80
2019-02-23T00:48:07.994Z,71.80
2019-02-23T00:50:37.972Z,71.70
2019-02-23T00:53:07.044Z,71.80
2019-02-23T00:55:35.813Z,71.70
2019-02-23T00:58:04.695Z,71.60
2019-02-23T01:00:33.999Z,71.60
2019-02-23T01:03:02.854Z,71.70
2019-02-23T01:05:32.244Z,71.70
2019-02-23T01:08:01.296Z,71.70
2019-02-23T01:10:30.356Z,71.70
2019-02-23T01:12:59.396Z,71.70
2019-02-23T01:15:28.473Z,71.70
2019-02-23T01:17:57.834Z,71.70
2019-02-23T01:20:26.961Z,71.70
2019-02-23T01:22:56.354Z,71.70
2019-02-23T01:25:25.944Z,71.60
2019-02-23T01:27:55.117Z,71.60
2019-02-23T01:30:24.343Z,71.60
2019-02-23T01:32:53.211Z,71.60
2019-02-23T01:35:24.194Z,71.60
2019-02-23T01:37:53.757Z,71.30
2019-02-23T01:40:22.895Z,71.60
2019-02-23T01:45:54.742Z,71.70
2019-02-23T01:51:22.995Z,71.90
2019-02-23T01:53:56.896Z,71.90
2019-02-23T01:56:25.789Z,71.90
2019-02-23T01:58:54.919Z,72.00
2019-02-23T02:01:24.393Z,72.20
2019-02-23T02:03:53.414Z,72.70
2019-02-23T02:06:23.329Z,72.10
2019-02-23T02:08:52.733Z,72.10
2019-02-23T02:11:22.253Z,72.00
2019-02-23T02:13:51.774Z,72.00
2019-02-23T02:16:20.918Z,71.90
2019-02-23T02:18:50.199Z,72.00
2019-02-23T02:21:20.214Z,71.90
2019-02-23T02:23:48.984Z,71.60
2019-02-23T02:26:19.300Z,71.70
2019-02-23T02:28:48.386Z,71.70
2019-02-23T02:31:19.604Z,71.60
2019-02-23T02:34:08.280Z,71.50
2019-02-23T02:36:37.742Z,71.60
2019-02-23T02:39:10.798Z,71.50
2019-02-23T02:41:40.740Z,71.70
2019-02-23T02:44:10.932Z,71.60
2019-02-23T02:46:40.344Z,71.70
2019-02-23T02:49:09.622Z,71.60
2019-02-23T02:51:39.019Z,71.70
2019-02-23T02:54:08.116Z,71.70
2019-02-23T02:56:37.138Z,71.70
2019-02-23T02:59:06.701Z,71.80
2019-02-23T03:01:35.503Z,71.70
2019-02-23T03:04:06.838Z,71.60
2019-02-23T03:06:36.658Z,71.70
2019-02-23T03:09:08.310Z,71.70
2019-02-23T03:11:37.873Z,71.70
2019-02-23T03:14:07.177Z,71.80
2019-02-23T03:16:39.044Z,72.00
2019-02-23T03:19:08.243Z,71.90
2019-02-23T03:21:37.416Z,72.20
2019-02-23T03:24:06.685Z,71.90
2019-02-23T03:26:35.756Z,72.10
2019-02-23T03:29:05.019Z,72.10
2019-02-23T03:31:34.159Z,72.70
2019-02-23T03:34:03.812Z,71.80
2019-02-23T03:36:32.714Z,71.70
2019-02-23T03:39:01.732Z,71.70
2019-02-23T03:41:30.992Z,71.60
2019-02-23T03:44:00.018Z,71.60
2019-02-23T03:46:28.758Z,71.50
2019-02-23T03:48:58.067Z,71.50
2019-02-23T03:51:27.313Z,71.50
2019-02-23T03:53:56.645Z,71.50
2019-02-23T03:56:26.309Z,71.50
2019-02-23T03:58:55.159Z,72.30
2019-02-23T04:01:23.976Z,71.50
2019-02-23T04:03:52.761Z,71.40
2019-02-23T04:06:21.482Z,71.40
2019-02-23T04:08:50.516Z,71.40
2019-02-23T04:11:20.024Z,71.40
2019-02-23T04:13:49.098Z,71.40
2019-02-23T04:16:18.374Z,71.40
2019-02-23T04:18:47.656Z,71.30
2019-02-23T04:21:17.245Z,71.30
2019-02-23T04:23:46.036Z,71.30
2019-02-23T04:26:15.325Z,71.30
2019-02-23T04:28:44.663Z,71.30
2019-02-23T04:31:13.726Z,71.20
2019-02-23T04:33:42.727Z,71.30
2019-02-23T04:36:11.812Z,71.30
2019-02-23T04:38:41.169Z,71.30
2019-02-23T04:41:10.475Z,71.30
2019-02-23T04:43:39.628Z,71.30
2019-02-23T04:46:08.910Z,71.40
2019-02-23T04:48:38.232Z,71.40
2019-02-23T04:51:14.423Z,71.40
2019-02-23T04:53:37.743Z,71.40
2019-02-23T04:56:06.816Z,71.40
2019-02-23T04:58:36.134Z,71.40
2019-02-23T05:01:04.895Z,71.40
2019-02-23T05:03:33.940Z,71.30
2019-02-23T05:06:03.005Z,71.30
2019-02-23T05:08:32.048Z,71.20
2019-02-23T05:11:01.073Z,72.00
2019-02-23T05:13:29.889Z,71.20
2019-02-23T05:15:58.957Z,71.20
2019-02-23T05:18:27.753Z,71.20
2019-02-23T05:20:56.765Z,71.20
2019-02-23T05:23:26.122Z,71.20
2019-02-23T05:25:55.192Z,71.20
2019-02-23T05:28:24.494Z,71.10
2019-02-23T05:30:53.375Z,71.10
2019-02-23T05:33:22.421Z,71.20
2019-02-23T05:35:51.481Z,71.20
2019-02-23T05:38:20.353Z,71.20
2019-02-23T05:40:49.673Z,71.30
2019-02-23T05:43:18.734Z,71.20
2019-02-23T05:45:47.794Z,71.20
2019-02-23T05:48:20.275Z,71.20
2019-02-23T05:50:49.329Z,71.20
2019-02-23T05:53:18.610Z,71.30
2019-02-23T05:55:47.381Z,71.30
2019-02-23T05:58:16.149Z,71.20
2019-02-23T06:00:45.553Z,71.20
2019-02-23T06:03:15.113Z,71.20
2019-02-23T06:05:44.246Z,71.20
2019-02-23T06:08:13.453Z,71.30
2019-02-23T06:10:44.617Z,71.20
2019-02-23T06:13:13.391Z,71.30
2019-02-23T06:15:43.831Z,71.20
2019-02-23T06:18:12.938Z,71.10
2019-02-23T06:20:41.935Z,71.20
2019-02-23T06:23:10.707Z,71.10
2019-02-23T06:25:39.534Z,71.00
2019-02-23T06:28:09.374Z,71.10
2019-02-23T06:30:38.484Z,71.10
2019-02-23T06:33:07.688Z,71.10
2019-02-23T06:35:37.054Z,71.10
2019-02-23T06:38:06.751Z,71.10
2019-02-23T06:40:35.754Z,71.20
2019-02-23T06:43:05.165Z,71.20
2019-02-23T06:45:34.435Z,71.10
2019-02-23T06:48:03.284Z,71.10
2019-02-23T06:50:32.026Z,71.10
2019-02-23T06:53:00.953Z,71.10
2019-02-23T06:55:29.787Z,71.20
2019-02-23T06:57:59.648Z,71.10
2019-02-23T07:00:28.580Z,71.20
2019-02-23T07:02:57.897Z,71.20
2019-02-23T07:05:26.644Z,71.20
2019-02-23T07:07:56.450Z,71.10
2019-02-23T07:10:25.737Z,71.20
2019-02-23T07:12:54.496Z,71.20
2019-02-23T07:15:23.829Z,71.10
2019-02-23T07:17:52.877Z,71.10
2019-02-23T07:20:21.899Z,71.20
2019-02-23T07:22:50.661Z,71.00
2019-02-23T07:25:19.449Z,71.10
2019-02-23T07:27:48.831Z,71.10
2019-02-23T07:30:17.865Z,71.10
2019-02-23T07:32:46.888Z,71.20
2019-02-23T07:35:16.925Z,71.20
2019-02-23T07:37:46.205Z,71.00
2019-02-23T07:40:15.277Z,71.20
2019-02-23T07:42:44.030Z,71.20
2019-02-23T07:45:12.801Z,71.20
2019-02-23T07:47:41.899Z,71.20
2019-02-23T07:50:11.395Z,71.30
2019-02-23T07:52:41.262Z,71.10
2019-02-23T07:55:10.214Z,71.10
2019-02-23T07:57:39.941Z,71.20
2019-02-23T08:00:09.999Z,71.20
2019-02-23T08:02:38.873Z,71.30
2019-02-23T08:05:10.859Z,71.30
2019-02-23T08:07:40.192Z,71.30
2019-02-23T08:10:11.962Z,71.30
2019-02-23T08:12:41.597Z,71.10
2019-02-23T08:15:10.694Z,72.10
2019-02-23T08:17:39.892Z,71.60
2019-02-23T08:20:09.118Z,71.30
2019-02-23T08:22:38.133Z,71.40
2019-02-23T08:25:07.684Z,71.50
2019-02-23T08:27:36.513Z,71.40
2019-02-23T08:30:07.181Z,71.40
2019-02-23T08:32:36.308Z,71.40
2019-02-23T08:35:05.607Z,71.40
2019-02-23T08:37:34.623Z,71.30
2019-02-23T08:40:03.444Z,71.40
2019-02-23T08:42:32.454Z,71.30
2019-02-23T08:45:01.762Z,71.30
2019-02-23T08:47:31.659Z,71.30
2019-02-23T08:50:00.925Z,71.20
2019-02-23T08:52:32.500Z,71.30
2019-02-23T08:55:01.861Z,71.90
2019-02-23T08:57:31.197Z,71.20
2019-02-23T09:00:00.318Z,71.20
2019-02-23T09:02:29.180Z,71.10
2019-02-23T09:04:57.916Z,71.10
2019-02-23T09:07:26.948Z,71.20
2019-02-23T09:09:55.939Z,71.20
2019-02-23T09:12:25.259Z,71.20
2019-02-23T09:14:54.393Z,71.10
2019-02-23T09:17:23.479Z,71.20
2019-02-23T09:19:52.800Z,71.20
2019-02-23T09:22:21.576Z,71.10
2019-02-23T09:24:50.884Z,71.20
2019-02-23T09:27:19.935Z,71.00
2019-02-23T09:29:48.739Z,71.00
2019-02-23T09:32:17.723Z,70.80
2019-02-23T09:34:46.741Z,70.80
2019-02-23T09:37:15.764Z,70.80
2019-02-23T09:39:45.021Z,70.90
2019-02-23T09:42:14.055Z,70.60
2019-02-23T09:44:43.333Z,70.80
2019-02-23T09:47:12.371Z,70.80
2019-02-23T09:49:41.941Z,70.80
2019-02-23T09:52:10.722Z,70.80
2019-02-23T09:54:39.770Z,70.70
2019-02-23T09:57:09.293Z,70.80
2019-02-23T09:59:40.185Z,70.70
2019-02-23T10:02:09.431Z,70.80
2019-02-23T10:04:38.705Z,70.80
2019-02-23T10:07:07.810Z,71.60
2019-02-23T10:09:37.351Z,70.50
2019-02-23T10:12:06.103Z,70.60
2019-02-23T10:14:35.118Z,70.80
2019-02-23T10:17:04.177Z,70.80
2019-02-23T10:19:33.296Z,70.80
2019-02-23T10:22:02.593Z,70.80
2019-02-23T10:24:31.628Z,70.60
2019-02-23T10:27:00.881Z,70.50
2019-02-23T10:29:30.185Z,70.50
2019-02-23T10:31:59.689Z,70.50
2019-02-23T10:34:29.294Z,70.50
2019-02-23T10:36:58.028Z,70.40
2019-02-23T10:39:27.033Z,70.30
2019-02-23T10:41:55.808Z,70.30
2019-02-23T10:44:24.841Z,70.20
2019-02-23T10:46:53.604Z,70.30
2019-02-23T10:49:22.862Z,70.30
2019-02-23T10:51:52.164Z,70.30
2019-02-23T10:54:20.922Z,70.20
2019-02-23T10:56:49.950Z,70.10
2019-02-23T10:59:19.463Z,70.20
2019-02-23T11:01:48.501Z,70.20
2019-02-23T11:04:17.866Z,70.10
2019-02-23T11:06:46.866Z,70.20
2019-02-23T11:09:25.416Z,70.10
2019-02-23T11:11:54.491Z,70.00
2019-02-23T11:14:23.759Z,70.00
2019-02-23T11:16:53.286Z,70.00
2019-02-23T11:19:22.326Z,70.00
2019-02-23T11:21:51.486Z,70.00
2019-02-23T11:24:20.270Z,70.00
2019-02-23T11:26:49.955Z,70.00
2019-02-23T11:29:18.838Z,70.00
2019-02-23T11:31:47.686Z,69.70
2019-02-23T11:34:16.677Z,69.20
2019-02-23T11:36:45.744Z,69.20
2019-02-23T11:39:14.782Z,69.30
2019-02-23T11:41:43.522Z,69.40
2019-02-23T11:44:13.079Z,69.50
2019-02-23T11:46:59.244Z,69.60
2019-02-23T11:49:13.100Z,69.70
2019-02-23T11:51:41.858Z,69.70
2019-02-23T11:54:10.710Z,69.90
2019-02-23T11:56:39.704Z,69.90
2019-02-23T11:59:08.742Z,70.00
2019-02-23T12:01:38.266Z,70.00
2019-02-23T12:04:07.636Z,69.80
2019-02-23T12:06:36.993Z,69.70
2019-02-23T12:09:07.315Z,69.70
2019-02-23T12:11:36.670Z,70.50
2019-02-23T12:14:06.045Z,69.70
2019-02-23T12:16:35.142Z,69.40
2019-02-23T12:19:03.996Z,69.40
2019-02-23T12:21:32.811Z,69.30
2019-02-23T12:24:06.006Z,69.30
2019-02-23T12:26:32.873Z,69.30
2019-02-23T12:29:02.174Z,69.20
2019-02-23T12:31:31.305Z,69.30
2019-02-23T12:34:00.340Z,69.10
2019-02-23T12:36:29.342Z,68.90
2019-02-23T12:38:58.638Z,69.00
2019-02-23T12:41:28.198Z,69.00
2019-02-23T12:43:57.191Z,69.00
2019-02-23T12:46:26.204Z,69.00
2019-02-23T12:48:55.211Z,68.90
2019-02-23T12:51:25.725Z,68.90
2019-02-23T12:53:54.548Z,68.80
2019-02-23T12:56:23.861Z,68.70
2019-02-23T12:58:53.415Z,68.70
2019-02-23T13:01:23.066Z,68.70
2019-02-23T13:03:52.403Z,68.70
2019-02-23T13:06:21.458Z,68.60
2019-02-23T13:09:34.029Z,68.50
2019-02-23T13:12:53.108Z,68.50
2019-02-23T13:15:38.744Z,68.60
2019-02-23T13:18:25.750Z,68.80
2019-02-23T13:21:34.839Z,68.70
2019-02-23T13:24:43.762Z,68.50
2019-02-23T13:27:45.343Z,68.40
2019-02-23T13:30:54.066Z,68.30
2019-02-23T13:34:00.196Z,68.10
2019-02-23T13:37:06.349Z,68.00
2019-02-23T13:39:46.311Z,68.00
2019-02-23T13:43:11.591Z,68.00
2019-02-23T13:46:01.015Z,67.90
2019-02-23T13:49:01.670Z,68.00
2019-02-23T13:51:47.527Z,67.90
2019-02-23T13:55:01.041Z,68.00
2019-02-23T13:58:11.606Z,67.90
2019-02-23T14:01:15.882Z,67.80
2019-02-23T14:04:26.119Z,67.80
2019-02-23T14:07:44.805Z,67.60
2019-02-23T14:10:50.148Z,67.60
2019-02-23T14:14:12.524Z,67.70
2019-02-23T14:17:23.747Z,67.60
2019-02-23T14:20:45.612Z,67.60
2019-02-23T14:23:51.530Z,67.50
2019-02-23T14:26:52.408Z,67.50
2019-02-23T14:30:02.474Z,67.50
2019-02-23T14:33:04.414Z,67.40
2019-02-23T14:35:55.790Z,67.50
2019-02-23T14:39:00.422Z,67.40
2019-02-23T14:41:57.182Z,67.40
2019-02-23T14:45:02.052Z,67.40
2019-02-23T14:48:15.156Z,67.40
2019-02-23T14:51:25.193Z,67.40
2019-02-23T14:54:19.864Z,67.30
2019-02-23T14:56:58.634Z,67.40
2019-02-23T14:59:59.744Z,67.30
2019-02-23T15:03:08.151Z,67.10
2019-02-23T15:05:50.729Z,67.00
2019-02-23T15:08:58.182Z,67.00
2019-02-23T15:11:51.179Z,67.00
2019-02-23T15:14:47.510Z,67.00
2019-02-23T15:17:36.624Z,67.00
2019-02-23T15:20:42.727Z,67.00
2019-02-23T15:23:17.331Z,66.90
2019-02-23T15:26:23.018Z,66.90
2019-02-23T15:29:18.820Z,66.80
2019-02-23T15:32:34.258Z,66.70
2019-02-23T15:35:18.769Z,66.70
2019-02-23T15:38:31.893Z,66.70
2019-02-23T15:41:57.521Z,66.60
2019-02-23T15:45:08.160Z,66.40
2019-02-23T15:48:08.674Z,66.50
2019-02-23T15:50:37.826Z,66.40
2019-02-23T15:53:06.989Z,66.30
2019-02-23T15:55:35.814Z,66.30
2019-02-23T15:58:05.181Z,66.30
2019-02-23T16:00:35.023Z,66.20
2019-02-23T16:03:04.434Z,66.10
2019-02-23T16:05:33.510Z,66.20
2019-02-23T16:08:02.835Z,66.10
2019-02-23T16:10:31.929Z,66.10
2019-02-23T16:13:00.942Z,66.10
2019-02-23T16:15:30.077Z,66.10
2019-02-23T16:17:59.135Z,66.00
2019-02-23T16:20:28.235Z,66.10
2019-02-23T16:22:57.286Z,66.00
2019-02-23T16:25:37.783Z,66.00
2019-02-23T16:27:56.585Z,65.90
2019-02-23T16:30:25.931Z,65.90
2019-02-23T16:32:55.178Z,65.90
2019-02-23T16:35:24.217Z,65.90
2019-02-23T16:37:53.512Z,65.90
2019-02-23T16:40:22.593Z,65.90
2019-02-23T16:42:51.617Z,65.80
2019-02-23T16:45:21.042Z,65.80
2019-02-23T16:47:50.173Z,65.80
2019-02-23T16:50:19.472Z,65.80
2019-02-23T16:52:48.238Z,65.80
2019-02-23T16:55:19.660Z,65.80
2019-02-23T16:57:51.879Z,65.80
2019-02-23T17:00:21.185Z,65.80
2019-02-23T17:02:50.281Z,65.90
2019-02-23T17:05:19.346Z,65.90
2019-02-23T17:07:48.154Z,66.00
2019-02-23T17:10:18.457Z,66.00
2019-02-23T17:12:47.430Z,66.00
2019-02-23T17:15:16.573Z,66.10
2019-02-23T17:17:45.845Z,66.10
2019-02-23T17:20:16.242Z,66.10
2019-02-23T17:22:45.924Z,66.10
2019-02-23T17:25:15.215Z,66.30
2019-02-23T17:27:45.090Z,66.20
2019-02-23T17:30:14.370Z,66.20
2019-02-23T17:32:43.392Z,66.20
2019-02-23T17:35:12.168Z,66.10
2019-02-23T17:37:41.535Z,66.10
2019-02-23T17:40:11.213Z,66.10
2019-02-23T17:42:40.274Z,66.10
2019-02-23T17:45:09.651Z,66.10
2019-02-23T17:47:38.795Z,66.00
2019-02-23T17:50:07.718Z,66.00
2019-02-23T17:52:37.259Z,66.10
2019-02-23T17:55:06.701Z,66.10
2019-02-23T17:57:36.147Z,66.00
2019-02-23T18:00:05.402Z,66.00
2019-02-23T18:02:34.716Z,66.00
2019-02-23T18:05:03.518Z,66.00
2019-02-23T18:07:32.859Z,66.00
2019-02-23T18:10:01.643Z,66.00
2019-02-23T18:12:30.958Z,66.10
2019-02-23T18:15:00.752Z,66.00
2019-02-23T18:17:29.869Z,66.10
2019-02-23T18:20:01.072Z,66.00
2019-02-23T18:22:30.534Z,66.10
2019-02-23T18:24:59.877Z,66.10
2019-02-23T18:27:28.909Z,66.10
2019-02-23T18:29:57.922Z,66.10
2019-02-23T18:32:29.475Z,65.90
2019-02-23T18:35:00.497Z,65.70
2019-02-23T18:37:33.726Z,66.10
2019-02-23T18:40:14.773Z,66.20
2019-02-23T18:42:44.144Z,65.90
2019-02-23T18:45:13.298Z,66.30
2019-02-23T18:47:42.615Z,66.30
2019-02-23T18:50:11.391Z,66.30
2019-02-23T18:52:40.414Z,66.30
2019-02-23T18:55:09.879Z,66.20
2019-02-23T18:57:38.826Z,66.10
2019-02-23T19:00:09.201Z,66.10
2019-02-23T19:02:38.080Z,66.10
2019-02-23T19:05:08.917Z,66.10
2019-02-23T19:07:38.040Z,66.20
2019-02-23T19:10:08.599Z,66.20
2019-02-23T19:12:37.732Z,66.20
2019-02-23T19:15:07.509Z,66.20
2019-02-23T19:17:36.299Z,66.20
2019-02-23T19:20:06.619Z,66.20
2019-02-23T19:22:35.711Z,66.20
2019-02-23T19:25:04.650Z,66.10
2019-02-23T19:27:33.670Z,66.10
2019-02-23T19:30:02.698Z,66.20
2019-02-23T19:32:31.727Z,66.10
2019-02-23T19:35:00.501Z,66.00
2019-02-23T19:37:32.608Z,66.10
2019-02-23T19:40:02.099Z,66.10
2019-02-23T19:42:30.938Z,66.10
2019-02-23T19:45:00.270Z,66.20
2019-02-23T19:47:33.386Z,66.20
2019-02-23T19:50:07.137Z,66.20
2019-02-23T19:52:36.320Z,66.30
2019-02-23T19:55:05.648Z,66.40
2019-02-23T19:57:34.656Z,66.30
2019-02-23T20:00:03.747Z,66.30
2019-02-23T20:02:32.720Z,66.30
2019-02-23T20:05:02.005Z,66.30
2019-02-23T20:07:31.370Z,66.20
2019-02-23T20:10:00.284Z,66.30
2019-02-23T20:12:29.323Z,66.20
2019-02-23T20:14:58.151Z,66.20
2019-02-23T20:17:31.224Z,66.20
2019-02-23T20:20:00.321Z,66.20
2019-02-23T20:22:29.501Z,66.20
2019-02-23T20:24:58.512Z,66.20
2019-02-23T20:27:28.169Z,66.20
2019-02-23T20:29:57.222Z,66.20
2019-02-23T20:32:26.643Z,66.20
2019-02-23T20:34:55.780Z,66.20
2019-02-23T20:37:26.464Z,66.20
2019-02-23T20:39:55.452Z,66.20
2019-02-23T20:42:24.642Z,66.10
2019-02-23T20:44:53.938Z,66.20
2019-02-23T20:47:22.982Z,66.20
2019-02-23T20:49:51.811Z,66.10
2019-02-23T20:52:20.883Z,66.00
2019-02-23T20:54:50.232Z,66.00
2019-02-23T20:57:18.988Z,66.00
2019-02-23T20:59:48.124Z,66.10
2019-02-23T21:02:17.469Z,66.00
2019-02-23T21:04:46.344Z,66.00
2019-02-23T21:07:17.758Z,65.90
2019-02-23T21:09:47.399Z,65.90
2019-02-23T21:12:16.718Z,65.90
2019-02-23T21:14:45.758Z,65.80
2019-02-23T21:17:15.020Z,65.80
2019-02-23T21:19:44.106Z,65.70
2019-02-23T21:22:19.915Z,65.70
2019-02-23T21:24:49.021Z,65.70
2019-02-23T21:27:18.316Z,66.50
2019-02-23T21:29:47.653Z,65.70
2019-02-23T21:32:16.410Z,65.60
2019-02-23T21:34:46.835Z,65.60
2019-02-23T21:37:16.715Z,65.70
2019-02-23T21:39:45.789Z,65.80
2019-02-23T21:42:14.565Z,66.10
2019-02-23T21:44:43.713Z,66.10
2019-02-23T21:47:13.048Z,66.20
2019-02-23T21:49:42.237Z,66.30
2019-02-23T21:52:11.253Z,66.30
2019-02-23T21:54:40.333Z,66.40
2019-02-23T21:57:09.852Z,66.50
2019-02-23T21:59:39.247Z,66.40
2019-02-23T22:02:08.557Z,66.50
2019-02-23T22:04:38.297Z,66.50
2019-02-23T22:07:07.520Z,66.60
2019-02-23T22:09:36.597Z,66.50
2019-02-23T22:12:05.784Z,66.70
2019-02-23T22:14:35.043Z,66.70
2019-02-23T22:17:04.348Z,66.70
2019-02-23T22:19:33.666Z,66.60
2019-02-23T22:22:03.813Z,66.70
2019-02-23T22:24:32.845Z,66.70
2019-02-23T22:27:01.899Z,66.70
2019-02-23T22:29:30.970Z,66.70
2019-02-23T22:31:59.976Z,66.80
2019-02-23T22:34:28.994Z,66.90
2019-02-23T22:36:58.743Z,66.70
2019-02-23T22:39:28.046Z,66.80
2019-02-23T22:41:57.061Z,66.80
2019-02-23T22:44:26.370Z,66.80
2019-02-23T22:46:55.716Z,66.90
2019-02-23T22:49:25.279Z,66.90
2019-02-23T22:51:54.318Z,66.90
2019-02-23T22:54:23.669Z,66.90
2019-02-23T22:56:52.686Z,66.90
2019-02-23T22:59:22.214Z,66.90
2019-02-23T23:01:51.324Z,66.90
2019-02-23T23:04:20.436Z,67.10
2019-02-23T23:06:49.168Z,67.00
2019-02-23T23:09:19.532Z,67.00
2019-02-23T23:11:48.619Z,67.10
2019-02-23T23:14:17.861Z,67.00
2019-02-23T23:16:47.214Z,66.90
2019-02-23T23:19:15.980Z,66.90
2019-02-23T23:21:45.452Z,66.90
2019-02-23T23:24:14.509Z,66.80
2019-02-23T23:26:43.549Z,66.80
2019-02-23T23:29:13.077Z,66.80
2019-02-23T23:31:42.362Z,66.90
2019-02-23T23:34:11.392Z,66.80
2019-02-23T23:36:40.420Z,66.90
2019-02-23T23:39:09.540Z,66.80
2019-02-23T23:41:38.298Z,66.80
2019-02-23T23:44:07.332Z,66.70
2019-02-23T23:46:36.321Z,66.70
2019-02-23T23:49:05.088Z,66.70
2019-02-23T23:51:34.311Z,66.70
2019-02-23T23:54:03.416Z,66.70
2019-02-23T23:56:32.412Z,66.70
2019-02-23T23:59:01.463Z,66.80
